sensor_id;sensor_type;location;lat;lon;timestamp;P1;durP1;ratioP1;P2;durP2;ratioP2
47617;SDS011;33336;36.728;-4.414;2022-12-07T00:03:09;3.42;;;1.90;;
47617;SDS011;33336;36.728;-4.414;2022-12-07T00:08:12;3.80;;;1.48;;
47617;SDS011;33336;36.728;-4.414;2022-12-07T00:13:17;3.83;;;1.42;;
47617;SDS011;33336;36.728;-4.414;2022-12-07T00:18:20;2.70;;;1.27;;
47617;SDS011;33336;36.728;-4.414;2022-12-07T00:23:23;2.47;;;1.40;;
47617;SDS011;33336;36.728;-4.414;2022-12-07T00:28:28;2.45;;;1.55;;
47617;SDS011;33336;36.728;-4.414;2022-12-07T00:33:31;3.20;;;1.95;;
47617;SDS011;33336;36.728;-4.414;2022-12-07T00:38:36;2.22;;;1.75;;
47617;SDS011;33336;36.728;-4.414;2022-12-07T00:43:41;2.03;;;1.63;;
47617;SDS011;33336;36.728;-4.414;2022-12-07T00:48:46;2.03;;;1.13;;
47617;SDS011;33336;36.728;-4.414;2022-12-07T00:53:49;2.20;;;1.20;;
47617;SDS011;33336;36.728;-4.414;2022-12-07T00:58:55;1.73;;;1.35;;
47617;SDS011;33336;36.728;-4.414;2022-12-07T01:03:59;3.10;;;1.10;;
47617;SDS011;33336;36.728;-4.414;2022-12-07T01:09:03;1.98;;;1.40;;
47617;SDS011;33336;36.728;-4.414;2022-12-07T01:14:08;1.60;;;1.20;;
47617;SDS011;33336;36.728;-4.414;2022-12-07T01:19:11;1.83;;;0.90;;
47617;SDS011;33336;36.728;-4.414;2022-12-07T01:24:14;1.55;;;1.10;;
47617;SDS011;33336;36.728;-4.414;2022-12-07T01:29:19;1.73;;;1.13;;
47617;SDS011;33336;36.728;-4.414;2022-12-07T01:34:21;2.72;;;1.35;;
47617;SDS011;33336;36.728;-4.414;2022-12-07T01:39:25;2.65;;;1.00;;
47617;SDS011;33336;36.728;-4.414;2022-12-07T01:44:30;1.10;;;1.00;;
47617;SDS011;33336;36.728;-4.414;2022-12-07T01:49:35;2.78;;;1.10;;
47617;SDS011;33336;36.728;-4.414;2022-12-07T01:54:39;2.53;;;0.85;;
47617;SDS011;33336;36.728;-4.414;2022-12-07T01:59:47;2.47;;;0.95;;
47617;SDS011;33336;36.728;-4.414;2022-12-07T02:04:52;1.95;;;0.82;;
47617;SDS011;33336;36.728;-4.414;2022-12-07T02:10:11;5.55;;;1.13;;
47617;SDS011;33336;36.728;-4.414;2022-12-07T02:15:16;2.00;;;1.20;;
47617;SDS011;33336;36.728;-4.414;2022-12-07T02:20:22;2.05;;;0.60;;
47617;SDS011;33336;36.728;-4.414;2022-12-07T02:25:33;1.88;;;0.93;;
47617;SDS011;33336;36.728;-4.414;2022-12-07T02:31:01;4.28;;;0.85;;
47617;SDS011;33336;36.728;-4.414;2022-12-07T02:36:08;1.30;;;0.85;;
47617;SDS011;33336;36.728;-4.414;2022-12-07T02:41:16;2.67;;;1.00;;
47617;SDS011;33336;36.728;-4.414;2022-12-07T02:46:25;1.10;;;0.80;;
47617;SDS011;33336;36.728;-4.414;2022-12-07T02:51:33;1.83;;;1.00;;
47617;SDS011;33336;36.728;-4.414;2022-12-07T02:56:43;1.25;;;0.75;;
47617;SDS011;33336;36.728;-4.414;2022-12-07T03:01:54;3.42;;;0.70;;
47617;SDS011;33336;36.728;-4.414;2022-12-07T03:07:06;1.77;;;0.75;;
47617;SDS011;33336;36.728;-4.414;2022-12-07T03:12:20;3.13;;;0.70;;
47617;SDS011;33336;36.728;-4.414;2022-12-07T03:17:29;2.63;;;0.55;;
47617;SDS011;33336;36.728;-4.414;2022-12-07T03:22:35;0.95;;;0.60;;
47617;SDS011;33336;36.728;-4.414;2022-12-07T03:27:42;0.75;;;0.60;;
47617;SDS011;33336;36.728;-4.414;2022-12-07T03:32:53;0.82;;;0.60;;
47617;SDS011;33336;36.728;-4.414;2022-12-07T03:37:59;1.67;;;0.63;;
47617;SDS011;33336;36.728;-4.414;2022-12-07T03:43:09;2.45;;;0.70;;
47617;SDS011;33336;36.728;-4.414;2022-12-07T03:48:16;2.42;;;0.60;;
47617;SDS011;33336;36.728;-4.414;2022-12-07T03:53:29;1.13;;;0.50;;
47617;SDS011;33336;36.728;-4.414;2022-12-07T03:58:36;1.10;;;0.52;;
47617;SDS011;33336;36.728;-4.414;2022-12-07T04:03:42;1.95;;;0.60;;
47617;SDS011;33336;36.728;-4.414;2022-12-07T04:08:44;0.77;;;0.50;;
47617;SDS011;33336;36.728;-4.414;2022-12-07T04:13:48;0.65;;;0.65;;
47617;SDS011;33336;36.728;-4.414;2022-12-07T04:19:10;2.40;;;0.80;;
47617;SDS011;33336;36.728;-4.414;2022-12-07T04:24:14;3.70;;;0.60;;
47617;SDS011;33336;36.728;-4.414;2022-12-07T04:29:17;0.77;;;0.50;;
47617;SDS011;33336;36.728;-4.414;2022-12-07T04:34:22;1.23;;;0.60;;
47617;SDS011;33336;36.728;-4.414;2022-12-07T04:39:26;3.92;;;0.60;;
47617;SDS011;33336;36.728;-4.414;2022-12-07T04:44:30;0.93;;;0.60;;
47617;SDS011;33336;36.728;-4.414;2022-12-07T04:49:34;1.13;;;0.70;;
47617;SDS011;33336;36.728;-4.414;2022-12-07T04:54:38;2.80;;;0.40;;
47617;SDS011;33336;36.728;-4.414;2022-12-07T04:59:41;3.95;;;0.50;;
47617;SDS011;33336;36.728;-4.414;2022-12-07T05:04:46;2.95;;;0.90;;
47617;SDS011;33336;36.728;-4.414;2022-12-07T05:09:48;1.30;;;0.90;;
47617;SDS011;33336;36.728;-4.414;2022-12-07T05:14:52;1.88;;;0.90;;
47617;SDS011;33336;36.728;-4.414;2022-12-07T05:19:56;1.85;;;0.77;;
47617;SDS011;33336;36.728;-4.414;2022-12-07T05:25:00;1.60;;;0.82;;
47617;SDS011;33336;36.728;-4.414;2022-12-07T05:30:04;1.20;;;0.75;;
47617;SDS011;33336;36.728;-4.414;2022-12-07T05:35:09;0.88;;;0.60;;
47617;SDS011;33336;36.728;-4.414;2022-12-07T05:40:12;2.70;;;0.90;;
47617;SDS011;33336;36.728;-4.414;2022-12-07T05:45:16;1.85;;;0.55;;
47617;SDS011;33336;36.728;-4.414;2022-12-07T05:50:21;1.40;;;0.60;;
47617;SDS011;33336;36.728;-4.414;2022-12-07T05:55:24;1.13;;;0.60;;
47617;SDS011;33336;36.728;-4.414;2022-12-07T06:00:27;0.65;;;0.55;;
47617;SDS011;33336;36.728;-4.414;2022-12-07T06:05:32;2.53;;;0.82;;
47617;SDS011;33336;36.728;-4.414;2022-12-07T06:10:34;1.30;;;0.63;;
47617;SDS011;33336;36.728;-4.414;2022-12-07T06:15:38;3.15;;;1.02;;
47617;SDS011;33336;36.728;-4.414;2022-12-07T06:20:42;0.60;;;0.50;;
47617;SDS011;33336;36.728;-4.414;2022-12-07T06:25:46;2.72;;;0.80;;
47617;SDS011;33336;36.728;-4.414;2022-12-07T06:30:56;3.60;;;0.68;;
47617;SDS011;33336;36.728;-4.414;2022-12-07T06:36:01;1.48;;;0.70;;
47617;SDS011;33336;36.728;-4.414;2022-12-07T06:41:04;2.78;;;0.70;;
47617;SDS011;33336;36.728;-4.414;2022-12-07T06:46:08;2.28;;;0.60;;
47617;SDS011;33336;36.728;-4.414;2022-12-07T06:51:12;3.35;;;1.10;;
47617;SDS011;33336;36.728;-4.414;2022-12-07T06:56:16;5.22;;;1.40;;
47617;SDS011;33336;36.728;-4.414;2022-12-07T07:01:19;2.08;;;1.00;;
47617;SDS011;33336;36.728;-4.414;2022-12-07T07:06:24;3.15;;;0.90;;
47617;SDS011;33336;36.728;-4.414;2022-12-07T07:11:27;1.40;;;0.65;;
47617;SDS011;33336;36.728;-4.414;2022-12-07T07:16:30;1.73;;;1.02;;
47617;SDS011;33336;36.728;-4.414;2022-12-07T07:21:34;2.80;;;0.93;;
47617;SDS011;33336;36.728;-4.414;2022-12-07T07:26:38;2.38;;;1.00;;
47617;SDS011;33336;36.728;-4.414;2022-12-07T07:31:41;3.97;;;1.45;;
47617;SDS011;33336;36.728;-4.414;2022-12-07T07:36:46;3.70;;;1.20;;
47617;SDS011;33336;36.728;-4.414;2022-12-07T07:41:48;3.20;;;1.40;;
47617;SDS011;33336;36.728;-4.414;2022-12-07T07:46:52;4.03;;;1.33;;
47617;SDS011;33336;36.728;-4.414;2022-12-07T07:51:56;6.82;;;1.50;;
47617;SDS011;33336;36.728;-4.414;2022-12-07T07:57:00;8.38;;;2.10;;
47617;SDS011;33336;36.728;-4.414;2022-12-07T08:02:03;4.45;;;2.08;;
47617;SDS011;33336;36.728;-4.414;2022-12-07T08:07:08;3.08;;;1.50;;
47617;SDS011;33336;36.728;-4.414;2022-12-07T08:12:10;5.78;;;1.30;;
47617;SDS011;33336;36.728;-4.414;2022-12-07T08:17:14;4.50;;;1.25;;
47617;SDS011;33336;36.728;-4.414;2022-12-07T08:22:19;6.55;;;1.60;;
47617;SDS011;33336;36.728;-4.414;2022-12-07T08:27:22;6.43;;;1.42;;
47617;SDS011;33336;36.728;-4.414;2022-12-07T08:32:27;8.48;;;1.95;;
47617;SDS011;33336;36.728;-4.414;2022-12-07T08:37:32;6.85;;;2.22;;
47617;SDS011;33336;36.728;-4.414;2022-12-07T08:42:35;17.45;;;2.03;;
47617;SDS011;33336;36.728;-4.414;2022-12-07T08:47:43;7.80;;;2.38;;
47617;SDS011;33336;36.728;-4.414;2022-12-07T08:52:51;7.82;;;2.38;;
47617;SDS011;33336;36.728;-4.414;2022-12-07T08:57:57;10.33;;;2.27;;
47617;SDS011;33336;36.728;-4.414;2022-12-07T09:03:00;7.63;;;2.13;;
47617;SDS011;33336;36.728;-4.414;2022-12-07T09:08:06;14.30;;;2.92;;
47617;SDS011;33336;36.728;-4.414;2022-12-07T09:13:09;6.65;;;2.10;;
47617;SDS011;33336;36.728;-4.414;2022-12-07T09:18:12;9.55;;;2.45;;
47617;SDS011;33336;36.728;-4.414;2022-12-07T09:23:16;5.85;;;1.58;;
47617;SDS011;33336;36.728;-4.414;2022-12-07T09:28:21;6.18;;;1.50;;
47617;SDS011;33336;36.728;-4.414;2022-12-07T09:33:23;5.80;;;2.05;;
47617;SDS011;33336;36.728;-4.414;2022-12-07T09:38:28;10.32;;;3.40;;
47617;SDS011;33336;36.728;-4.414;2022-12-07T09:43:32;13.13;;;4.22;;
47617;SDS011;33336;36.728;-4.414;2022-12-07T09:48:38;14.45;;;5.90;;
47617;SDS011;33336;36.728;-4.414;2022-12-07T09:53:43;16.27;;;7.55;;
47617;SDS011;33336;36.728;-4.414;2022-12-07T09:58:47;20.27;;;8.75;;
47617;SDS011;33336;36.728;-4.414;2022-12-07T10:03:51;12.95;;;7.13;;
47617;SDS011;33336;36.728;-4.414;2022-12-07T10:08:58;15.13;;;7.82;;
47617;SDS011;33336;36.728;-4.414;2022-12-07T10:14:10;15.05;;;7.93;;
47617;SDS011;33336;36.728;-4.414;2022-12-07T10:19:19;14.25;;;6.53;;
47617;SDS011;33336;36.728;-4.414;2022-12-07T10:24:26;8.10;;;4.18;;
47617;SDS011;33336;36.728;-4.414;2022-12-07T10:29:31;8.10;;;4.22;;
47617;SDS011;33336;36.728;-4.414;2022-12-07T10:34:37;5.50;;;3.60;;
47617;SDS011;33336;36.728;-4.414;2022-12-07T10:39:42;8.77;;;4.53;;
47617;SDS011;33336;36.728;-4.414;2022-12-07T10:44:46;12.10;;;6.15;;
47617;SDS011;33336;36.728;-4.414;2022-12-07T10:55:28;12.25;;;6.47;;
47617;SDS011;33336;36.728;-4.414;2022-12-07T11:00:43;17.40;;;5.97;;
47617;SDS011;33336;36.728;-4.414;2022-12-07T11:05:59;16.63;;;4.82;;
47617;SDS011;33336;36.728;-4.414;2022-12-07T11:11:16;15.67;;;4.83;;
47617;SDS011;33336;36.728;-4.414;2022-12-07T11:16:29;14.05;;;4.43;;
47617;SDS011;33336;36.728;-4.414;2022-12-07T11:21:45;9.95;;;3.92;;
47617;SDS011;33336;36.728;-4.414;2022-12-07T11:27:03;6.93;;;3.40;;
47617;SDS011;33336;36.728;-4.414;2022-12-07T11:32:21;10.98;;;4.15;;
47617;SDS011;33336;36.728;-4.414;2022-12-07T11:37:32;13.77;;;4.65;;
47617;SDS011;33336;36.728;-4.414;2022-12-07T11:42:41;9.35;;;3.53;;
47617;SDS011;33336;36.728;-4.414;2022-12-07T11:47:47;6.47;;;3.45;;
47617;SDS011;33336;36.728;-4.414;2022-12-07T11:52:55;12.45;;;4.20;;
47617;SDS011;33336;36.728;-4.414;2022-12-07T11:58:07;9.02;;;2.97;;
47617;SDS011;33336;36.728;-4.414;2022-12-07T12:03:25;8.13;;;2.47;;
47617;SDS011;33336;36.728;-4.414;2022-12-07T12:08:33;8.55;;;2.58;;
47617;SDS011;33336;36.728;-4.414;2022-12-07T12:19:25;5.15;;;2.22;;
47617;SDS011;33336;36.728;-4.414;2022-12-07T12:24:35;7.88;;;2.45;;
47617;SDS011;33336;36.728;-4.414;2022-12-07T12:29:42;2.83;;;1.67;;
47617;SDS011;33336;36.728;-4.414;2022-12-07T12:35:00;3.42;;;1.75;;
47617;SDS011;33336;36.728;-4.414;2022-12-07T12:40:41;15.25;;;2.78;;
47617;SDS011;33336;36.728;-4.414;2022-12-07T12:45:47;7.07;;;1.73;;
47617;SDS011;33336;36.728;-4.414;2022-12-07T12:50:50;5.85;;;2.25;;
47617;SDS011;33336;36.728;-4.414;2022-12-07T12:56:36;6.00;;;1.98;;
47617;SDS011;33336;36.728;-4.414;2022-12-07T13:01:46;7.60;;;2.00;;
47617;SDS011;33336;36.728;-4.414;2022-12-07T13:06:50;11.68;;;3.28;;
47617;SDS011;33336;36.728;-4.414;2022-12-07T13:12:01;9.20;;;2.50;;
47617;SDS011;33336;36.728;-4.414;2022-12-07T13:17:09;6.35;;;2.20;;
47617;SDS011;33336;36.728;-4.414;2022-12-07T13:27:51;5.07;;;2.30;;
47617;SDS011;33336;36.728;-4.414;2022-12-07T13:33:00;5.95;;;2.35;;
47617;SDS011;33336;36.728;-4.414;2022-12-07T13:38:13;7.70;;;2.63;;
47617;SDS011;33336;36.728;-4.414;2022-12-07T13:43:21;5.95;;;2.65;;
47617;SDS011;33336;36.728;-4.414;2022-12-07T13:48:27;5.03;;;2.55;;
47617;SDS011;33336;36.728;-4.414;2022-12-07T13:53:34;3.20;;;2.00;;
47617;SDS011;33336;36.728;-4.414;2022-12-07T13:58:49;7.55;;;3.10;;
47617;SDS011;33336;36.728;-4.414;2022-12-07T14:03:54;7.25;;;2.85;;
47617;SDS011;33336;36.728;-4.414;2022-12-07T14:09:07;5.45;;;3.10;;
47617;SDS011;33336;36.728;-4.414;2022-12-07T14:14:18;10.30;;;3.03;;
47617;SDS011;33336;36.728;-4.414;2022-12-07T14:19:41;6.70;;;3.05;;
47617;SDS011;33336;36.728;-4.414;2022-12-07T14:25:11;7.43;;;3.17;;
47617;SDS011;33336;36.728;-4.414;2022-12-07T14:30:22;9.23;;;3.22;;
47617;SDS011;33336;36.728;-4.414;2022-12-07T14:35:28;7.28;;;3.75;;
47617;SDS011;33336;36.728;-4.414;2022-12-07T14:40:31;15.38;;;4.57;;
47617;SDS011;33336;36.728;-4.414;2022-12-07T14:45:34;12.57;;;5.18;;
47617;SDS011;33336;36.728;-4.414;2022-12-07T14:50:40;10.10;;;3.97;;
47617;SDS011;33336;36.728;-4.414;2022-12-07T14:55:46;9.70;;;3.35;;
47617;SDS011;33336;36.728;-4.414;2022-12-07T15:00:49;5.80;;;3.05;;
47617;SDS011;33336;36.728;-4.414;2022-12-07T15:05:54;5.40;;;3.45;;
47617;SDS011;33336;36.728;-4.414;2022-12-07T15:10:57;6.50;;;4.30;;
47617;SDS011;33336;36.728;-4.414;2022-12-07T15:16:01;7.32;;;3.40;;
47617;SDS011;33336;36.728;-4.414;2022-12-07T15:21:09;8.30;;;3.40;;
47617;SDS011;33336;36.728;-4.414;2022-12-07T15:26:15;10.95;;;3.30;;
47617;SDS011;33336;36.728;-4.414;2022-12-07T15:31:18;8.50;;;3.78;;
47617;SDS011;33336;36.728;-4.414;2022-12-07T15:36:23;6.20;;;3.58;;
47617;SDS011;33336;36.728;-4.414;2022-12-07T15:41:28;6.72;;;3.10;;
47617;SDS011;33336;36.728;-4.414;2022-12-07T15:46:35;6.15;;;3.03;;
47617;SDS011;33336;36.728;-4.414;2022-12-07T15:51:40;5.07;;;3.00;;
47617;SDS011;33336;36.728;-4.414;2022-12-07T15:56:44;5.32;;;3.05;;
47617;SDS011;33336;36.728;-4.414;2022-12-07T16:01:48;6.38;;;2.90;;
47617;SDS011;33336;36.728;-4.414;2022-12-07T16:06:52;7.18;;;3.63;;
47617;SDS011;33336;36.728;-4.414;2022-12-07T16:11:56;5.35;;;3.22;;
47617;SDS011;33336;36.728;-4.414;2022-12-07T16:16:59;8.90;;;2.65;;
47617;SDS011;33336;36.728;-4.414;2022-12-07T16:22:03;8.52;;;3.58;;
47617;SDS011;33336;36.728;-4.414;2022-12-07T16:27:06;7.13;;;3.60;;
47617;SDS011;33336;36.728;-4.414;2022-12-07T16:32:09;6.50;;;3.88;;
47617;SDS011;33336;36.728;-4.414;2022-12-07T16:37:13;8.63;;;4.50;;
47617;SDS011;33336;36.728;-4.414;2022-12-07T16:42:17;7.25;;;4.97;;
47617;SDS011;33336;36.728;-4.414;2022-12-07T16:47:20;8.88;;;5.15;;
47617;SDS011;33336;36.728;-4.414;2022-12-07T16:52:24;11.48;;;5.60;;
47617;SDS011;33336;36.728;-4.414;2022-12-07T16:57:27;8.48;;;4.95;;
47617;SDS011;33336;36.728;-4.414;2022-12-07T17:02:33;9.32;;;4.57;;
47617;SDS011;33336;36.728;-4.414;2022-12-07T17:07:37;7.60;;;5.20;;
47617;SDS011;33336;36.728;-4.414;2022-12-07T17:12:41;9.77;;;5.25;;
47617;SDS011;33336;36.728;-4.414;2022-12-07T17:17:44;15.10;;;6.50;;
47617;SDS011;33336;36.728;-4.414;2022-12-07T17:22:49;10.55;;;5.90;;
47617;SDS011;33336;36.728;-4.414;2022-12-07T17:27:52;10.55;;;6.05;;
47617;SDS011;33336;36.728;-4.414;2022-12-07T17:32:56;12.68;;;8.73;;
47617;SDS011;33336;36.728;-4.414;2022-12-07T17:38:00;24.10;;;12.02;;
47617;SDS011;33336;36.728;-4.414;2022-12-07T17:43:04;11.23;;;8.18;;
47617;SDS011;33336;36.728;-4.414;2022-12-07T17:48:07;14.90;;;7.57;;
47617;SDS011;33336;36.728;-4.414;2022-12-07T17:53:11;12.70;;;6.53;;
47617;SDS011;33336;36.728;-4.414;2022-12-07T17:58:14;10.88;;;7.00;;
47617;SDS011;33336;36.728;-4.414;2022-12-07T18:03:18;9.25;;;6.60;;
47617;SDS011;33336;36.728;-4.414;2022-12-07T18:08:22;13.82;;;7.28;;
47617;SDS011;33336;36.728;-4.414;2022-12-07T18:13:26;11.15;;;7.05;;
47617;SDS011;33336;36.728;-4.414;2022-12-07T18:18:38;11.02;;;6.93;;
47617;SDS011;33336;36.728;-4.414;2022-12-07T18:23:44;12.25;;;7.28;;
47617;SDS011;33336;36.728;-4.414;2022-12-07T18:28:49;9.63;;;7.97;;
47617;SDS011;33336;36.728;-4.414;2022-12-07T18:33:52;16.75;;;8.40;;
47617;SDS011;33336;36.728;-4.414;2022-12-07T18:38:57;15.45;;;9.15;;
47617;SDS011;33336;36.728;-4.414;2022-12-07T18:44:01;17.05;;;8.52;;
47617;SDS011;33336;36.728;-4.414;2022-12-07T18:49:05;12.98;;;9.32;;
47617;SDS011;33336;36.728;-4.414;2022-12-07T18:54:10;13.55;;;9.45;;
47617;SDS011;33336;36.728;-4.414;2022-12-07T18:59:13;11.32;;;8.38;;
47617;SDS011;33336;36.728;-4.414;2022-12-07T19:04:35;11.48;;;7.38;;
47617;SDS011;33336;36.728;-4.414;2022-12-07T19:09:39;8.77;;;6.85;;
47617;SDS011;33336;36.728;-4.414;2022-12-07T19:14:43;9.73;;;6.90;;
47617;SDS011;33336;36.728;-4.414;2022-12-07T19:19:46;9.95;;;7.35;;
47617;SDS011;33336;36.728;-4.414;2022-12-07T19:24:51;9.52;;;7.63;;
47617;SDS011;33336;36.728;-4.414;2022-12-07T19:29:54;12.27;;;9.32;;
47617;SDS011;33336;36.728;-4.414;2022-12-07T19:34:57;16.63;;;11.15;;
47617;SDS011;33336;36.728;-4.414;2022-12-07T19:40:02;15.05;;;13.50;;
47617;SDS011;33336;36.728;-4.414;2022-12-07T19:45:06;20.15;;;13.48;;
47617;SDS011;33336;36.728;-4.414;2022-12-07T19:50:12;14.75;;;11.85;;
47617;SDS011;33336;36.728;-4.414;2022-12-07T19:55:16;12.13;;;10.52;;
47617;SDS011;33336;36.728;-4.414;2022-12-07T20:00:19;19.95;;;11.80;;
47617;SDS011;33336;36.728;-4.414;2022-12-07T20:05:23;14.43;;;11.95;;
47617;SDS011;33336;36.728;-4.414;2022-12-07T20:10:27;16.30;;;13.85;;
47617;SDS011;33336;36.728;-4.414;2022-12-07T20:15:31;18.92;;;14.93;;
47617;SDS011;33336;36.728;-4.414;2022-12-07T20:20:34;15.73;;;11.65;;
47617;SDS011;33336;36.728;-4.414;2022-12-07T20:25:38;21.05;;;14.27;;
47617;SDS011;33336;36.728;-4.414;2022-12-07T20:30:45;15.55;;;13.18;;
47617;SDS011;33336;36.728;-4.414;2022-12-07T20:35:48;17.13;;;14.82;;
47617;SDS011;33336;36.728;-4.414;2022-12-07T20:40:52;22.65;;;13.05;;
47617;SDS011;33336;36.728;-4.414;2022-12-07T20:46:00;16.63;;;12.75;;
47617;SDS011;33336;36.728;-4.414;2022-12-07T20:51:03;17.38;;;12.30;;
47617;SDS011;33336;36.728;-4.414;2022-12-07T20:56:15;15.70;;;12.48;;
47617;SDS011;33336;36.728;-4.414;2022-12-07T21:01:19;16.13;;;12.52;;
47617;SDS011;33336;36.728;-4.414;2022-12-07T21:06:23;21.20;;;16.13;;
47617;SDS011;33336;36.728;-4.414;2022-12-07T21:11:29;20.80;;;16.02;;
47617;SDS011;33336;36.728;-4.414;2022-12-07T21:22:00;30.48;;;21.88;;
47617;SDS011;33336;36.728;-4.414;2022-12-07T21:27:05;21.92;;;12.90;;
47617;SDS011;33336;36.728;-4.414;2022-12-07T21:32:09;19.60;;;13.30;;
47617;SDS011;33336;36.728;-4.414;2022-12-07T21:37:13;22.60;;;14.70;;
47617;SDS011;33336;36.728;-4.414;2022-12-07T21:42:17;18.83;;;13.30;;
47617;SDS011;33336;36.728;-4.414;2022-12-07T21:47:21;21.50;;;14.30;;
47617;SDS011;33336;36.728;-4.414;2022-12-07T21:52:24;20.45;;;14.38;;
47617;SDS011;33336;36.728;-4.414;2022-12-07T21:57:28;21.83;;;15.20;;
47617;SDS011;33336;36.728;-4.414;2022-12-07T22:02:32;27.17;;;17.15;;
47617;SDS011;33336;36.728;-4.414;2022-12-07T22:07:36;18.90;;;15.23;;
47617;SDS011;33336;36.728;-4.414;2022-12-07T22:12:40;23.38;;;16.08;;
47617;SDS011;33336;36.728;-4.414;2022-12-07T22:17:44;22.73;;;14.82;;
47617;SDS011;33336;36.728;-4.414;2022-12-07T22:22:47;19.25;;;14.07;;
47617;SDS011;33336;36.728;-4.414;2022-12-07T22:27:51;20.55;;;13.95;;
47617;SDS011;33336;36.728;-4.414;2022-12-07T22:32:54;17.95;;;12.68;;
47617;SDS011;33336;36.728;-4.414;2022-12-07T22:37:58;21.65;;;12.38;;
47617;SDS011;33336;36.728;-4.414;2022-12-07T22:43:04;16.50;;;12.52;;
47617;SDS011;33336;36.728;-4.414;2022-12-07T22:48:07;17.15;;;11.98;;
47617;SDS011;33336;36.728;-4.414;2022-12-07T22:53:10;19.45;;;11.85;;
47617;SDS011;33336;36.728;-4.414;2022-12-07T22:58:15;13.73;;;11.63;;
47617;SDS011;33336;36.728;-4.414;2022-12-07T23:03:18;16.08;;;11.43;;
47617;SDS011;33336;36.728;-4.414;2022-12-07T23:08:22;16.92;;;11.25;;
47617;SDS011;33336;36.728;-4.414;2022-12-07T23:13:26;14.45;;;8.60;;
47617;SDS011;33336;36.728;-4.414;2022-12-07T23:18:37;14.75;;;10.10;;
47617;SDS011;33336;36.728;-4.414;2022-12-07T23:23:41;15.00;;;8.52;;
47617;SDS011;33336;36.728;-4.414;2022-12-07T23:28:45;14.13;;;10.68;;
47617;SDS011;33336;36.728;-4.414;2022-12-07T23:33:49;18.40;;;10.05;;
47617;SDS011;33336;36.728;-4.414;2022-12-07T23:38:53;17.60;;;9.70;;
47617;SDS011;33336;36.728;-4.414;2022-12-07T23:43:58;12.45;;;8.75;;
47617;SDS011;33336;36.728;-4.414;2022-12-07T23:49:03;13.65;;;7.88;;
47617;SDS011;33336;36.728;-4.414;2022-12-07T23:54:07;13.35;;;8.02;;
47617;SDS011;33336;36.728;-4.414;2022-12-07T23:59:13;17.25;;;8.32;;
